createdAt,value
2022-11-26T00:02:24.012Z,7.36
2022-11-26T00:04:52.244Z,7.36
2022-11-26T00:07:23.529Z,7.38
2022-11-26T00:09:50.515Z,7.35
2022-11-26T00:12:22.226Z,7.39
2022-11-26T00:14:49.462Z,7.41
2022-11-26T00:17:17.816Z,7.41
2022-11-26T00:19:46.337Z,7.41
2022-11-26T00:22:31.150Z,7.44
2022-11-26T00:24:58.660Z,7.42
2022-11-26T00:27:28.260Z,7.40
2022-11-26T00:29:56.036Z,7.44
2022-11-26T00:32:25.768Z,7.44
2022-11-26T00:34:53.752Z,7.42
2022-11-26T00:37:28.054Z,7.33
2022-11-26T00:39:56.968Z,7.21
2022-11-26T00:42:24.176Z,7.29
2022-11-26T00:44:52.540Z,7.34
2022-11-26T00:47:19.383Z,7.12
2022-11-26T00:49:46.177Z,7.21
2022-11-26T00:52:28.355Z,7.30
2022-11-26T00:54:55.660Z,7.33
2022-11-26T00:57:22.577Z,7.27
2022-11-26T00:59:49.739Z,7.26
2022-11-26T01:02:17.949Z,7.32
2022-11-26T01:04:44.864Z,7.35
2022-11-26T01:07:11.920Z,7.40
2022-11-26T01:09:39.039Z,7.42
2022-11-26T01:12:12.633Z,7.45
2022-11-26T01:14:40.231Z,7.45
2022-11-26T01:17:12.050Z,7.46
2022-11-26T01:19:40.669Z,7.47
2022-11-26T01:22:20.219Z,7.43
2022-11-26T01:24:47.483Z,7.42
2022-11-26T01:27:14.892Z,7.40
2022-11-26T01:29:41.857Z,7.31
2022-11-26T01:32:10.274Z,7.34
2022-11-26T01:34:37.591Z,7.40
2022-11-26T01:37:12.636Z,7.39
2022-11-26T01:39:40.691Z,7.39
2022-11-26T01:42:25.143Z,7.44
2022-11-26T01:44:52.565Z,7.48
2022-11-26T01:47:24.108Z,7.51
2022-11-26T01:50:49.217Z,7.40
2022-11-26T01:53:30.027Z,7.34
2022-11-26T01:56:01.721Z,7.23
2022-11-26T01:58:36.905Z,7.10
2022-11-26T02:01:06.595Z,6.98
2022-11-26T02:03:42.826Z,6.96
2022-11-26T02:06:17.515Z,7.04
2022-11-26T02:08:47.156Z,7.09
2022-11-26T02:11:18.089Z,7.17
2022-11-26T02:13:49.406Z,7.18
2022-11-26T02:16:36.458Z,7.22
2022-11-26T02:20:03.476Z,7.35
2022-11-26T02:23:02.097Z,7.30
2022-11-26T02:25:59.785Z,7.39
2022-11-26T02:29:04.461Z,7.35
2022-11-26T02:31:45.809Z,7.32
2022-11-26T02:34:21.600Z,7.41
2022-11-26T02:36:56.758Z,7.46
2022-11-26T02:39:28.268Z,7.55
2022-11-26T02:41:58.540Z,7.49
2022-11-26T02:44:31.016Z,7.49
2022-11-26T02:47:06.851Z,7.40
2022-11-26T02:49:38.209Z,7.47
2022-11-26T02:52:09.785Z,7.44
2022-11-26T02:54:39.307Z,7.48
2022-11-26T02:57:13.333Z,7.55
2022-11-26T02:59:41.771Z,7.66
2022-11-26T03:02:18.788Z,7.71
2022-11-26T03:04:53.877Z,7.75
2022-11-26T03:07:21.634Z,7.75
2022-11-26T03:09:54.577Z,7.73
2022-11-26T03:12:22.737Z,7.70
2022-11-26T03:14:50.212Z,7.70
2022-11-26T03:17:18.684Z,7.68
2022-11-26T03:19:46.297Z,7.71
2022-11-26T03:22:14.760Z,7.68
2022-11-26T03:24:42.130Z,7.72
2022-11-26T03:27:09.507Z,7.72
2022-11-26T03:29:36.466Z,7.73
2022-11-26T03:32:03.978Z,7.79
2022-11-26T03:34:32.640Z,7.76
2022-11-26T03:36:59.906Z,7.68
2022-11-26T03:39:27.120Z,7.51
2022-11-26T03:41:53.963Z,7.41
2022-11-26T03:44:21.145Z,7.39
2022-11-26T03:46:48.204Z,7.37
2022-11-26T03:49:15.070Z,7.39
2022-11-26T03:51:43.488Z,7.34
2022-11-26T03:54:11.245Z,7.36
2022-11-26T03:56:38.336Z,7.35
2022-11-26T03:59:05.352Z,7.35
2022-11-26T04:01:32.834Z,7.30
2022-11-26T04:03:59.859Z,7.25
2022-11-26T04:06:27.085Z,7.23
2022-11-26T04:08:55.397Z,7.22
2022-11-26T04:11:22.372Z,7.19
2022-11-26T04:13:49.408Z,7.25
2022-11-26T04:16:16.508Z,7.24
2022-11-26T04:18:43.635Z,7.25
2022-11-26T04:21:11.040Z,7.20
2022-11-26T04:23:37.888Z,7.25
2022-11-26T04:26:06.410Z,7.25
2022-11-26T04:28:33.364Z,7.17
2022-11-26T04:31:00.603Z,7.24
2022-11-26T04:33:27.536Z,7.23
2022-11-26T04:35:55.421Z,7.18
2022-11-26T04:38:25.773Z,7.16
2022-11-26T04:40:53.793Z,7.11
2022-11-26T04:43:22.055Z,7.17
2022-11-26T04:45:49.359Z,7.19
2022-11-26T04:48:16.252Z,7.20
2022-11-26T04:50:43.136Z,7.15
2022-11-26T04:53:10.511Z,7.12
2022-11-26T04:55:37.403Z,7.11
2022-11-26T04:58:04.285Z,6.95
2022-11-26T05:00:32.525Z,6.88
2022-11-26T05:02:59.667Z,6.84
2022-11-26T05:05:26.847Z,6.87
2022-11-26T05:07:53.681Z,6.77
2022-11-26T05:10:20.744Z,6.76
2022-11-26T05:12:47.561Z,6.79
2022-11-26T05:15:14.377Z,6.81
2022-11-26T05:17:42.909Z,6.77
2022-11-26T05:20:11.218Z,6.67
2022-11-26T05:22:38.274Z,6.58
2022-11-26T05:25:06.050Z,6.53
2022-11-26T05:27:33.336Z,6.50
2022-11-26T05:30:00.238Z,6.43
2022-11-26T05:32:27.519Z,6.45
2022-11-26T05:35:00.040Z,6.47
2022-11-26T05:37:27.773Z,6.51
2022-11-26T05:39:54.583Z,6.46
2022-11-26T05:42:21.657Z,6.33
2022-11-26T05:44:48.580Z,6.26
2022-11-26T05:47:15.724Z,6.11
2022-11-26T05:49:42.800Z,5.99
2022-11-26T05:52:10.961Z,6.01
2022-11-26T05:54:38.153Z,6.01
2022-11-26T05:57:05.207Z,6.00
2022-11-26T05:59:32.035Z,6.00
2022-11-26T06:01:59.143Z,5.96
2022-11-26T06:04:26.083Z,5.93
2022-11-26T06:06:53.163Z,5.90
2022-11-26T06:09:21.659Z,5.88
2022-11-26T06:11:49.216Z,5.81
2022-11-26T06:14:16.575Z,5.64
2022-11-26T06:16:43.628Z,5.62
2022-11-26T06:19:11.613Z,5.64
2022-11-26T06:21:38.623Z,5.60
2022-11-26T06:24:06.461Z,5.46
2022-11-26T06:26:34.667Z,5.42
2022-11-26T06:29:01.703Z,5.39
2022-11-26T06:31:28.641Z,5.34
2022-11-26T06:33:56.743Z,5.34
2022-11-26T06:36:24.214Z,5.38
2022-11-26T06:38:51.300Z,5.39
2022-11-26T06:41:18.229Z,5.37
2022-11-26T06:43:46.825Z,5.43
2022-11-26T06:46:14.321Z,5.43
2022-11-26T06:48:41.631Z,5.34
2022-11-26T06:51:12.264Z,5.34
2022-11-26T06:53:40.235Z,5.32
2022-11-26T06:56:16.566Z,5.37
2022-11-26T06:58:47.522Z,5.38
2022-11-26T07:01:17.842Z,5.38
2022-11-26T07:03:45.132Z,5.42
2022-11-26T07:06:17.669Z,5.45
2022-11-26T07:08:45.425Z,5.50
2022-11-26T07:11:12.675Z,5.55
2022-11-26T07:13:39.781Z,5.55
2022-11-26T07:16:09.038Z,5.55
2022-11-26T07:18:36.630Z,5.38
2022-11-26T07:21:09.605Z,5.45
2022-11-26T07:23:36.736Z,5.41
2022-11-26T07:26:06.351Z,5.31
2022-11-26T07:28:34.868Z,5.35
2022-11-26T07:31:03.370Z,5.31
2022-11-26T07:33:32.028Z,5.19
2022-11-26T07:36:00.129Z,5.13
2022-11-26T07:38:27.421Z,4.95
2022-11-26T07:40:55.109Z,4.89
2022-11-26T07:43:22.145Z,5.06
2022-11-26T07:45:49.277Z,5.26
2022-11-26T07:48:17.077Z,5.45
2022-11-26T07:50:45.826Z,5.64
2022-11-26T07:53:13.559Z,5.76
2022-11-26T07:55:41.198Z,5.84
2022-11-26T07:58:08.041Z,5.95
2022-11-26T08:00:34.973Z,6.15
2022-11-26T08:03:01.952Z,6.15
2022-11-26T08:05:29.124Z,6.20
2022-11-26T08:07:57.305Z,6.33
2022-11-26T08:10:24.394Z,6.53
2022-11-26T08:12:51.202Z,6.72
2022-11-26T08:15:18.516Z,6.88
2022-11-26T08:17:45.285Z,6.96
2022-11-26T08:20:12.594Z,7.05
2022-11-26T08:22:39.502Z,7.07
2022-11-26T08:25:09.621Z,7.04
2022-11-26T08:27:36.925Z,6.85
2022-11-26T08:30:05.224Z,6.63
2022-11-26T08:32:32.324Z,6.57
2022-11-26T08:34:59.171Z,6.63
2022-11-26T08:37:26.309Z,6.67
2022-11-26T08:39:53.104Z,6.75
2022-11-26T08:42:21.479Z,6.92
2022-11-26T08:44:48.367Z,7.15
2022-11-26T08:47:15.467Z,7.34
2022-11-26T08:49:43.388Z,7.43
2022-11-26T08:52:10.475Z,7.46
2022-11-26T08:54:41.994Z,7.52
2022-11-26T08:57:11.779Z,7.61
2022-11-26T08:59:39.959Z,7.71
2022-11-26T09:02:09.835Z,7.78
2022-11-26T09:04:37.375Z,7.77
2022-11-26T09:07:04.840Z,7.83
2022-11-26T09:09:31.668Z,7.92
2022-11-26T09:12:00.901Z,8.01
2022-11-26T09:14:34.439Z,7.86
2022-11-26T09:17:03.096Z,7.98
2022-11-26T09:19:30.717Z,8.19
2022-11-26T09:21:59.956Z,8.76
2022-11-26T09:24:26.835Z,8.76
2022-11-26T09:26:53.750Z,8.76
2022-11-26T09:29:23.562Z,8.80
2022-11-26T09:34:39.663Z,8.95
2022-11-26T09:37:06.856Z,8.99
2022-11-26T09:39:33.915Z,9.09
2022-11-26T09:42:06.780Z,9.19
2022-11-26T09:44:53.503Z,9.79
2022-11-26T09:47:23.815Z,10.23
2022-11-26T09:50:06.371Z,11.69
2022-11-26T09:52:40.404Z,13.17
2022-11-26T09:55:16.881Z,12.18
2022-11-26T09:57:51.449Z,11.55
2022-11-26T10:00:26.512Z,11.18
2022-11-26T10:02:56.791Z,12.01
2022-11-26T10:05:42.260Z,13.79
2022-11-26T10:08:37.053Z,14.87
2022-11-26T10:11:18.451Z,16.37
2022-11-26T10:13:57.605Z,17.80
2022-11-26T10:16:38.793Z,18.68
2022-11-26T10:19:18.488Z,18.40
2022-11-26T10:22:00.111Z,18.57
2022-11-26T10:24:33.738Z,18.64
2022-11-26T10:27:10.497Z,19.09
2022-11-26T10:29:42.980Z,18.38
2022-11-26T10:32:18.323Z,16.87
2022-11-26T10:34:51.145Z,15.59
2022-11-26T10:37:22.804Z,14.59
2022-11-26T10:40:01.026Z,13.88
2022-11-26T10:42:41.143Z,13.08
2022-11-26T10:45:21.409Z,12.27
2022-11-26T10:47:48.564Z,11.99
2022-11-26T10:53:22.037Z,11.63
2022-11-26T10:55:51.821Z,11.43
2022-11-26T10:58:23.971Z,11.84
2022-11-26T11:01:02.215Z,11.72
2022-11-26T11:04:05.970Z,11.70
2022-11-26T11:06:38.338Z,11.74
2022-11-26T11:09:27.133Z,11.72
2022-11-26T11:12:23.531Z,12.01
2022-11-26T11:14:52.086Z,12.06
2022-11-26T11:17:30.966Z,11.90
2022-11-26T11:20:21.323Z,11.35
2022-11-26T11:22:58.140Z,11.09
2022-11-26T11:25:31.261Z,11.05
2022-11-26T11:28:11.767Z,10.89
2022-11-26T11:30:42.279Z,10.82
2022-11-26T11:33:18.801Z,10.59
2022-11-26T11:35:59.408Z,10.47
2022-11-26T11:38:29.747Z,10.28
2022-11-26T11:41:04.343Z,10.01
2022-11-26T11:43:36.478Z,10.00
2022-11-26T11:46:42.240Z,10.02
2022-11-26T11:49:25.902Z,9.45
2022-11-26T11:52:15.965Z,9.52
2022-11-26T11:54:58.020Z,9.42
2022-11-26T11:57:55.600Z,9.15
2022-11-26T12:00:32.709Z,9.10
2022-11-26T12:03:48.633Z,9.09
2022-11-26T12:06:32.079Z,9.11
2022-11-26T12:09:13.054Z,9.22
2022-11-26T12:11:56.517Z,9.17
2022-11-26T12:14:35.971Z,9.31
2022-11-26T12:17:14.563Z,9.52
2022-11-26T12:19:50.671Z,9.72
2022-11-26T12:22:23.587Z,9.68
2022-11-26T12:24:59.726Z,9.59
2022-11-26T12:27:36.852Z,9.68
2022-11-26T12:30:12.756Z,9.97
2022-11-26T12:32:51.972Z,10.19
2022-11-26T12:35:30.102Z,10.48
2022-11-26T12:38:02.593Z,10.77
2022-11-26T12:40:37.454Z,10.65
2022-11-26T12:43:14.145Z,10.10
2022-11-26T12:45:54.891Z,10.10
2022-11-26T12:48:38.715Z,10.30
2022-11-26T12:51:24.106Z,10.28
2022-11-26T12:54:06.616Z,10.43
2022-11-26T12:56:44.770Z,10.47
2022-11-26T12:59:26.229Z,10.70
2022-11-26T13:01:54.906Z,10.43
2022-11-26T13:04:41.468Z,10.45
2022-11-26T13:07:33.290Z,10.63
2022-11-26T13:10:21.008Z,10.38
2022-11-26T13:13:01.432Z,10.66
2022-11-26T13:15:37.622Z,10.59
2022-11-26T13:18:16.915Z,10.61
2022-11-26T13:21:09.983Z,10.72
2022-11-26T13:24:01.949Z,10.82
2022-11-26T13:27:06.373Z,10.85
2022-11-26T13:30:04.384Z,10.93
2022-11-26T13:33:31.681Z,10.82
2022-11-26T13:36:37.810Z,10.87
2022-11-26T13:39:37.812Z,10.84
2022-11-26T13:42:46.139Z,10.65
2022-11-26T13:45:55.654Z,10.87
2022-11-26T13:48:35.659Z,11.29
2022-11-26T13:51:14.348Z,11.74
2022-11-26T13:53:50.243Z,11.69
2022-11-26T13:56:25.007Z,11.78
2022-11-26T13:58:58.710Z,11.68
2022-11-26T14:01:33.107Z,11.64
2022-11-26T14:04:02.381Z,11.72
2022-11-26T14:06:29.663Z,11.75
2022-11-26T14:08:57.161Z,11.96
2022-11-26T14:11:54.438Z,11.88
2022-11-26T14:14:34.617Z,11.81
2022-11-26T14:17:14.899Z,11.36
2022-11-26T14:20:10.034Z,11.13
2022-11-26T14:22:37.440Z,10.79
2022-11-26T14:25:09.807Z,10.59
2022-11-26T14:27:43.321Z,10.35
2022-11-26T14:30:31.014Z,10.10
2022-11-26T14:33:13.819Z,10.03
2022-11-26T14:35:54.914Z,9.96
2022-11-26T14:38:28.429Z,9.80
2022-11-26T14:40:59.548Z,9.59
2022-11-26T14:43:27.912Z,9.42
2022-11-26T14:46:12.426Z,9.37
2022-11-26T14:48:44.356Z,9.33
2022-11-26T14:55:24.434Z,9.12
2022-11-26T14:57:57.441Z,9.01
2022-11-26T15:00:39.571Z,8.87
2022-11-26T15:03:23.956Z,8.80
2022-11-26T15:05:51.362Z,8.74
2022-11-26T15:08:24.119Z,8.73
2022-11-26T15:10:55.591Z,8.66
2022-11-26T15:13:31.090Z,8.59
2022-11-26T15:16:01.789Z,8.51
2022-11-26T15:18:34.141Z,8.44
2022-11-26T15:21:03.696Z,8.36
2022-11-26T15:23:38.156Z,8.27
2022-11-26T15:26:06.543Z,8.24
2022-11-26T15:28:38.312Z,8.26
2022-11-26T15:31:06.509Z,8.22
2022-11-26T15:33:36.189Z,8.21
2022-11-26T15:36:05.412Z,8.03
2022-11-26T15:38:36.667Z,7.85
2022-11-26T15:41:07.919Z,7.73
2022-11-26T15:43:42.240Z,7.62
2022-11-26T15:46:18.512Z,7.58
2022-11-26T15:48:52.389Z,7.54
2022-11-26T15:51:32.202Z,7.51
2022-11-26T15:54:15.927Z,7.49
2022-11-26T15:56:43.075Z,7.47
2022-11-26T15:59:16.882Z,7.44
2022-11-26T16:01:46.365Z,7.31
2022-11-26T16:04:39.920Z,7.20
2022-11-26T16:07:15.896Z,7.15
2022-11-26T16:09:45.483Z,7.16
2022-11-26T16:12:29.832Z,7.24
2022-11-26T16:15:19.851Z,7.25
2022-11-26T16:17:49.372Z,7.23
2022-11-26T16:20:20.066Z,7.23
2022-11-26T16:22:51.063Z,7.19
2022-11-26T16:25:26.629Z,7.16
2022-11-26T16:28:05.927Z,7.18
2022-11-26T16:30:33.230Z,7.17
2022-11-26T16:33:00.297Z,7.17
2022-11-26T16:35:45.233Z,7.14
2022-11-26T16:38:19.379Z,7.15
2022-11-26T16:40:48.141Z,7.15
2022-11-26T16:43:15.310Z,7.16
2022-11-26T16:45:42.709Z,7.17
2022-11-26T16:48:23.170Z,7.19
2022-11-26T16:50:50.378Z,7.20
2022-11-26T16:53:17.388Z,7.07
2022-11-26T16:55:44.701Z,7.06
2022-11-26T16:58:27.699Z,7.05
2022-11-26T17:00:55.249Z,7.09
2022-11-26T17:03:22.987Z,7.12
2022-11-26T17:05:55.680Z,7.13
2022-11-26T17:08:23.422Z,7.09
2022-11-26T17:10:50.311Z,6.99
2022-11-26T17:13:19.268Z,6.88
2022-11-26T17:15:46.719Z,6.84
2022-11-26T17:18:20.184Z,6.88
2022-11-26T17:20:47.412Z,6.79
2022-11-26T17:23:15.212Z,6.79
2022-11-26T17:25:45.070Z,6.75
2022-11-26T17:28:13.845Z,6.82
2022-11-26T17:30:43.921Z,6.86
2022-11-26T17:33:11.513Z,6.87
2022-11-26T17:35:39.015Z,6.91
2022-11-26T17:38:14.648Z,6.93
2022-11-26T17:40:42.235Z,6.72
2022-11-26T17:43:09.497Z,6.76
2022-11-26T17:45:36.747Z,6.81
2022-11-26T17:48:06.304Z,6.86
2022-11-26T17:50:34.422Z,6.84
2022-11-26T17:53:01.273Z,6.87
2022-11-26T17:55:28.192Z,6.93
2022-11-26T17:57:55.620Z,7.01
2022-11-26T18:00:28.590Z,7.04
2022-11-26T18:02:56.769Z,7.08
2022-11-26T18:05:25.481Z,7.10
2022-11-26T18:07:52.619Z,7.12
2022-11-26T18:10:22.750Z,7.11
2022-11-26T18:12:53.480Z,7.07
2022-11-26T18:15:23.751Z,6.96
2022-11-26T18:17:54.043Z,6.95
2022-11-26T18:20:25.971Z,6.88
2022-11-26T18:22:55.718Z,6.84
2022-11-26T18:25:23.432Z,6.84
2022-11-26T18:27:51.181Z,6.73
2022-11-26T18:30:19.312Z,6.54
2022-11-26T18:32:46.496Z,6.32
2022-11-26T18:35:13.545Z,6.32
2022-11-26T18:37:42.499Z,6.40
2022-11-26T18:40:14.021Z,6.45
2022-11-26T18:42:41.466Z,6.46
2022-11-26T18:45:13.780Z,6.50
2022-11-26T18:47:40.681Z,6.50
2022-11-26T18:50:08.781Z,6.49
2022-11-26T18:52:36.102Z,6.51
2022-11-26T18:55:05.227Z,6.50
2022-11-26T18:57:32.331Z,6.48
2022-11-26T18:59:59.162Z,6.45
2022-11-26T19:02:27.142Z,6.43
2022-11-26T19:04:53.958Z,6.41
2022-11-26T19:07:20.921Z,6.38
2022-11-26T19:09:48.249Z,6.34
2022-11-26T19:12:16.509Z,6.26
2022-11-26T19:14:43.716Z,6.18
2022-11-26T19:17:10.556Z,6.19
2022-11-26T19:19:38.590Z,6.18
2022-11-26T19:22:05.622Z,6.18
2022-11-26T19:24:32.467Z,6.15
2022-11-26T19:26:59.661Z,6.13
2022-11-26T19:29:27.896Z,6.08
2022-11-26T19:31:54.714Z,6.03
2022-11-26T19:34:21.593Z,5.88
2022-11-26T19:36:49.182Z,5.87
2022-11-26T19:39:17.667Z,5.87
2022-11-26T19:41:44.766Z,5.68
2022-11-26T19:44:12.294Z,5.62
2022-11-26T19:46:40.974Z,5.61
2022-11-26T19:49:12.252Z,5.52
2022-11-26T19:51:40.350Z,5.50
2022-11-26T19:54:07.863Z,5.37
2022-11-26T19:56:35.525Z,5.27
2022-11-26T19:59:02.952Z,5.22
2022-11-26T20:01:33.399Z,5.24
2022-11-26T20:04:04.684Z,5.23
2022-11-26T20:06:34.716Z,5.27
2022-11-26T20:09:04.710Z,5.30
2022-11-26T20:11:33.049Z,5.33
2022-11-26T20:14:00.153Z,5.38
2022-11-26T20:16:30.924Z,5.34
2022-11-26T20:19:01.663Z,5.31
2022-11-26T20:21:31.955Z,5.27
2022-11-26T20:24:02.471Z,5.20
2022-11-26T20:26:33.409Z,5.18
2022-11-26T20:29:04.129Z,5.03
2022-11-26T20:31:32.142Z,5.01
2022-11-26T20:34:03.616Z,5.01
2022-11-26T20:36:31.906Z,4.98
2022-11-26T20:39:01.938Z,4.96
2022-11-26T20:41:30.008Z,4.99
2022-11-26T20:43:59.448Z,5.00
2022-11-26T20:46:28.552Z,4.96
2022-11-26T20:48:56.455Z,4.91
2022-11-26T20:51:25.677Z,4.93
2022-11-26T20:53:53.487Z,4.90
2022-11-26T20:56:22.183Z,4.86
2022-11-26T20:58:51.051Z,4.84
2022-11-26T21:01:22.401Z,4.83
2022-11-26T21:03:50.357Z,4.76
2022-11-26T21:06:23.350Z,4.61
2022-11-26T21:08:56.251Z,4.53
2022-11-26T21:11:23.095Z,4.59
2022-11-26T21:13:51.007Z,4.63
2022-11-26T21:16:18.119Z,4.62
2022-11-26T21:18:45.897Z,4.62
2022-11-26T21:21:15.819Z,4.55
2022-11-26T21:23:44.818Z,4.51
2022-11-26T21:26:17.746Z,4.55
2022-11-26T21:28:49.325Z,4.57
2022-11-26T21:31:18.463Z,4.63
2022-11-26T21:33:46.787Z,4.67
2022-11-26T21:36:16.752Z,4.66
2022-11-26T21:38:49.150Z,4.62
2022-11-26T21:41:19.024Z,4.62
2022-11-26T21:43:47.543Z,4.57
2022-11-26T21:46:17.701Z,4.52
2022-11-26T21:48:45.208Z,4.48
2022-11-26T21:51:14.954Z,4.48
2022-11-26T21:53:42.865Z,4.51
2022-11-26T21:56:13.480Z,4.24
2022-11-26T21:58:42.442Z,4.18
2022-11-26T22:01:11.466Z,4.15
2022-11-26T22:03:39.220Z,4.24
2022-11-26T22:06:07.543Z,4.30
2022-11-26T22:08:35.158Z,4.41
2022-11-26T22:11:08.788Z,4.52
2022-11-26T22:13:35.894Z,4.57
2022-11-26T22:16:06.521Z,4.60
2022-11-26T22:18:36.074Z,4.62
2022-11-26T22:21:03.338Z,4.65
2022-11-26T22:23:30.406Z,4.63
2022-11-26T22:25:57.416Z,4.43
2022-11-26T22:28:29.725Z,4.29
2022-11-26T22:30:57.337Z,3.56
2022-11-26T22:33:25.632Z,3.65
2022-11-26T22:35:52.398Z,3.81
2022-11-26T22:38:19.377Z,3.86
2022-11-26T22:40:46.388Z,3.82
2022-11-26T22:43:13.131Z,3.75
2022-11-26T22:45:40.083Z,3.64
2022-11-26T22:48:07.260Z,3.70
2022-11-26T22:50:35.361Z,3.80
2022-11-26T22:53:02.582Z,3.71
2022-11-26T22:55:29.387Z,3.54
2022-11-26T22:57:56.253Z,3.54
2022-11-26T23:00:46.584Z,3.18
2022-11-26T23:03:14.297Z,3.28
2022-11-26T23:05:43.162Z,3.38
2022-11-26T23:08:11.400Z,3.51
2022-11-26T23:10:38.969Z,3.51
2022-11-26T23:13:08.131Z,3.14
2022-11-26T23:15:44.285Z,3.05
2022-11-26T23:18:14.371Z,3.01
2022-11-26T23:20:43.621Z,3.14
2022-11-26T23:23:10.645Z,3.14
2022-11-26T23:25:38.974Z,3.13
2022-11-26T23:28:06.730Z,3.10
2022-11-26T23:30:34.350Z,2.57
2022-11-26T23:33:01.293Z,2.38
2022-11-26T23:35:28.776Z,2.41
2022-11-26T23:37:57.029Z,2.49
2022-11-26T23:40:24.061Z,2.69
2022-11-26T23:42:51.122Z,2.90
2022-11-26T23:45:18.267Z,3.13
2022-11-26T23:47:45.149Z,3.23
2022-11-26T23:50:12.607Z,3.37
2022-11-26T23:52:39.512Z,3.47
2022-11-26T23:55:09.207Z,3.55
2022-11-26T23:57:36.789Z,2.97
